Muribeca dos Guararapes, Brazil
Current Conditions -  °F | °C
As of 6:00 PM on Tuesday 21 Oct 2014 (Local Time) from SBRF Reporting Station
Few Clouds Few Clouds  
Wind Chill: 26°   Ceiling: Unl
Heat Index: 27°   Visibility: 6mi
Dew Point: 21°   Wind: 9mph
Humidity: 74%   Direction: 100°E
Pressure: 29.91"   Gusts: NA
Location:  8.15°S, 34.97°W
Report Text: SBRF 212100Z 10008KT 9999 FEW023 26/21 Q1013
Loading
Personal Weather Stations






























Interactive Weather Map
Tropical Storm Tracking
New forecast layout! Learn more

10-Day Weather Forecast

Advertisements
Track Severe Weather on mobile